createdAt,value
2018-09-27T00:01:05.124Z,4.53
2018-09-27T00:03:33.498Z,4.30
2018-09-27T00:06:01.821Z,4.57
2018-09-27T00:08:30.043Z,4.37
2018-09-27T00:10:58.300Z,4.80
2018-09-27T00:13:26.502Z,4.67
2018-09-27T00:15:54.782Z,4.10
2018-09-27T00:18:23.025Z,4.27
2018-09-27T00:20:51.296Z,4.00
2018-09-27T00:23:19.501Z,3.97
2018-09-27T00:25:47.729Z,4.00
2018-09-27T00:28:15.959Z,4.17
2018-09-27T00:30:44.207Z,4.97
2018-09-27T00:33:12.433Z,4.53
2018-09-27T00:35:40.670Z,4.37
2018-09-27T00:38:08.916Z,4.60
2018-09-27T00:40:37.210Z,4.07
2018-09-27T00:43:05.513Z,4.63
2018-09-27T00:45:33.791Z,4.87
2018-09-27T00:48:02.019Z,4.93
2018-09-27T00:50:30.338Z,4.10
2018-09-27T00:52:58.575Z,4.43
2018-09-27T00:55:26.829Z,4.40
2018-09-27T00:57:55.066Z,4.63
2018-09-27T01:00:23.309Z,4.20
2018-09-27T01:02:51.584Z,4.00
2018-09-27T01:05:19.805Z,4.37
2018-09-27T01:07:48.026Z,4.37
2018-09-27T01:10:16.254Z,4.80
2018-09-27T01:12:44.561Z,5.00
2018-09-27T01:15:12.843Z,5.07
2018-09-27T01:17:41.116Z,5.33
2018-09-27T01:20:09.369Z,4.80
2018-09-27T01:22:37.602Z,4.60
2018-09-27T01:25:05.918Z,4.50
2018-09-27T01:27:34.399Z,4.47
2018-09-27T01:30:02.725Z,4.23
2018-09-27T01:32:30.930Z,4.17
2018-09-27T01:34:59.179Z,4.90
2018-09-27T01:37:27.422Z,4.10
2018-09-27T01:39:55.673Z,4.40
2018-09-27T01:42:23.890Z,4.37
2018-09-27T01:44:52.101Z,4.20
2018-09-27T01:47:20.359Z,4.53
2018-09-27T01:49:48.605Z,4.20
2018-09-27T01:52:16.834Z,4.30
2018-09-27T01:54:45.053Z,4.27
2018-09-27T01:57:13.278Z,4.40
2018-09-27T01:59:41.498Z,4.60
2018-09-27T02:02:09.773Z,4.73
2018-09-27T02:04:38.014Z,5.20
2018-09-27T02:07:06.257Z,4.70
2018-09-27T02:09:34.497Z,4.03
2018-09-27T02:12:02.750Z,5.13
2018-09-27T02:14:30.986Z,4.97
2018-09-27T02:16:59.193Z,5.00
2018-09-27T02:19:27.410Z,4.93
2018-09-27T02:21:55.622Z,4.47
2018-09-27T02:24:23.855Z,4.43
2018-09-27T02:26:52.152Z,4.50
2018-09-27T02:29:20.467Z,4.77
2018-09-27T02:31:48.690Z,4.63
2018-09-27T02:34:16.918Z,4.37
2018-09-27T02:36:45.164Z,4.07
2018-09-27T02:39:13.402Z,4.07
2018-09-27T02:41:41.655Z,4.17
2018-09-27T02:44:10.037Z,4.33
2018-09-27T02:46:38.255Z,4.40
2018-09-27T02:49:06.527Z,4.57
2018-09-27T02:51:34.745Z,4.20
2018-09-27T02:54:02.983Z,4.83
2018-09-27T02:56:31.218Z,4.10
2018-09-27T02:58:59.442Z,4.43
2018-09-27T03:01:27.678Z,4.37
2018-09-27T03:03:55.903Z,4.00
2018-09-27T03:06:24.118Z,4.57
2018-09-27T03:08:52.346Z,4.70
2018-09-27T03:11:20.595Z,4.77
2018-09-27T03:13:48.924Z,4.70
2018-09-27T03:16:17.050Z,4.20
2018-09-27T03:18:45.278Z,4.47
2018-09-27T03:21:13.494Z,4.17
2018-09-27T03:23:41.740Z,4.27
2018-09-27T03:26:09.958Z,4.67
2018-09-27T03:28:38.178Z,3.90
2018-09-27T03:31:06.675Z,4.20
2018-09-27T03:33:34.873Z,4.20
2018-09-27T03:36:03.107Z,4.03
2018-09-27T03:38:31.357Z,3.97
2018-09-27T03:40:59.553Z,4.47
2018-09-27T03:43:27.811Z,4.13
2018-09-27T03:45:56.026Z,4.30
2018-09-27T03:48:24.229Z,4.67
2018-09-27T03:50:52.554Z,4.73
2018-09-27T03:53:20.791Z,4.70
2018-09-27T03:55:49.023Z,4.60
2018-09-27T03:58:17.271Z,4.53
2018-09-27T04:00:45.498Z,4.20
2018-09-27T04:03:13.770Z,4.57
2018-09-27T04:05:41.956Z,4.50
2018-09-27T04:08:10.174Z,4.57
2018-09-27T04:10:38.416Z,4.20
2018-09-27T04:13:06.673Z,5.03
2018-09-27T04:15:34.889Z,4.50
2018-09-27T04:18:03.115Z,4.33
2018-09-27T04:20:35.038Z,4.80
2018-09-27T04:23:03.279Z,4.93
2018-09-27T04:25:31.513Z,4.47
2018-09-27T04:27:59.727Z,5.60
2018-09-27T04:30:27.954Z,5.33
2018-09-27T04:32:56.182Z,5.03
2018-09-27T04:35:24.393Z,5.27
2018-09-27T04:37:52.607Z,4.97
2018-09-27T04:40:20.846Z,4.80
2018-09-27T04:42:49.074Z,5.07
2018-09-27T04:45:17.306Z,4.20
2018-09-27T04:47:45.547Z,4.27
2018-09-27T04:50:13.773Z,4.50
2018-09-27T04:52:42.026Z,4.50
2018-09-27T04:55:10.250Z,4.40
2018-09-27T04:57:38.468Z,4.27
2018-09-27T05:00:06.789Z,4.60
2018-09-27T05:02:34.935Z,4.23
2018-09-27T05:05:03.197Z,4.90
2018-09-27T05:07:31.402Z,4.73
2018-09-27T05:09:59.637Z,4.53
2018-09-27T05:12:27.881Z,4.50
2018-09-27T05:14:56.102Z,4.30
2018-09-27T05:17:24.382Z,4.90
2018-09-27T05:19:52.594Z,4.70
2018-09-27T05:22:20.850Z,4.83
2018-09-27T05:24:49.102Z,4.97
2018-09-27T05:27:18.489Z,4.50
2018-09-27T05:29:46.650Z,4.77
2018-09-27T05:32:14.980Z,5.23
2018-09-27T05:34:43.250Z,4.53
2018-09-27T05:37:11.538Z,4.70
2018-09-27T05:39:40.886Z,4.87
2018-09-27T05:42:09.086Z,5.03
2018-09-27T05:44:37.317Z,5.37
2018-09-27T05:47:05.669Z,4.87
2018-09-27T05:49:34.023Z,4.87
2018-09-27T05:52:02.296Z,4.83
2018-09-27T05:54:31.707Z,5.00
2018-09-27T05:56:59.965Z,4.83
2018-09-27T05:59:28.308Z,4.73
2018-09-27T06:01:56.660Z,4.63
2018-09-27T06:04:24.891Z,4.13
2018-09-27T06:06:53.113Z,5.50
2018-09-27T06:09:21.372Z,4.80
2018-09-27T06:11:49.605Z,5.30
2018-09-27T06:14:17.856Z,5.07
2018-09-27T06:16:46.127Z,5.50
2018-09-27T06:19:14.535Z,5.17
2018-09-27T06:21:43.047Z,5.00
2018-09-27T06:24:11.316Z,4.60
2018-09-27T06:26:39.596Z,4.93
2018-09-27T06:29:08.083Z,5.23
2018-09-27T06:31:36.326Z,4.90
2018-09-27T06:34:04.573Z,4.80
2018-09-27T06:36:32.835Z,4.03
2018-09-27T06:39:01.110Z,4.70
2018-09-27T06:41:29.415Z,5.20
2018-09-27T06:43:57.623Z,4.73
2018-09-27T06:46:25.908Z,4.50
2018-09-27T06:48:54.332Z,5.23
2018-09-27T06:51:22.451Z,4.97
2018-09-27T06:53:50.710Z,4.57
2018-09-27T06:56:18.944Z,4.57
2018-09-27T06:58:47.215Z,4.67
2018-09-27T07:01:15.437Z,5.07
2018-09-27T07:03:43.685Z,4.50
2018-09-27T07:06:11.919Z,4.50
2018-09-27T07:08:40.253Z,4.60
2018-09-27T07:11:08.838Z,4.40
2018-09-27T07:13:37.506Z,4.70
2018-09-27T07:16:05.744Z,4.07
2018-09-27T07:18:34.995Z,4.40
2018-09-27T07:21:03.224Z,4.67
2018-09-27T07:23:31.471Z,4.43
2018-09-27T07:25:59.739Z,4.30
2018-09-27T07:28:27.974Z,4.57
2018-09-27T07:30:56.218Z,4.77
2018-09-27T07:33:24.468Z,4.40
2018-09-27T07:35:52.706Z,4.63
2018-09-27T07:38:20.944Z,4.10
2018-09-27T07:40:49.258Z,5.00
2018-09-27T07:43:17.574Z,5.10
2018-09-27T07:45:45.793Z,4.57
2018-09-27T07:48:14.048Z,4.37
2018-09-27T07:50:42.324Z,4.37
2018-09-27T07:53:10.465Z,4.37
2018-09-27T07:55:38.686Z,4.63
2018-09-27T07:58:07.341Z,4.33
2018-09-27T08:00:36.686Z,4.23
2018-09-27T08:03:04.972Z,4.47
2018-09-27T08:05:33.154Z,4.43
2018-09-27T08:08:01.388Z,4.17
2018-09-27T08:10:29.674Z,4.90
2018-09-27T08:12:57.893Z,4.17
2018-09-27T08:15:26.138Z,4.97
2018-09-27T08:17:54.427Z,4.50
2018-09-27T08:20:22.712Z,4.17
2018-09-27T08:22:50.918Z,4.53
2018-09-27T08:25:21.272Z,4.07
2018-09-27T08:27:49.557Z,4.20
2018-09-27T08:30:17.811Z,4.27
2018-09-27T08:32:46.114Z,4.30
2018-09-27T08:35:14.418Z,4.17
2018-09-27T08:37:42.703Z,4.37
2018-09-27T08:40:11.031Z,4.20
2018-09-27T08:42:39.417Z,4.40
2018-09-27T08:45:08.234Z,4.63
2018-09-27T08:47:37.465Z,4.43
2018-09-27T08:50:05.822Z,4.40
2018-09-27T08:52:34.150Z,4.00
2018-09-27T08:55:02.411Z,4.07
2018-09-27T08:57:30.761Z,3.60
2018-09-27T08:59:58.979Z,3.57
2018-09-27T09:02:27.285Z,4.00
2018-09-27T09:04:55.639Z,3.70
2018-09-27T09:07:23.941Z,3.60
2018-09-27T09:09:52.191Z,3.50
2018-09-27T09:12:21.066Z,3.97
2018-09-27T09:14:49.342Z,3.77
2018-09-27T09:17:17.642Z,3.60
2018-09-27T09:19:45.847Z,3.70
2018-09-27T09:22:14.083Z,3.70
2018-09-27T09:24:42.419Z,3.63
2018-09-27T09:27:10.808Z,3.50
2018-09-27T09:29:39.171Z,3.63
2018-09-27T09:32:07.306Z,3.97
2018-09-27T09:34:35.604Z,3.60
2018-09-27T09:37:03.955Z,3.43
2018-09-27T09:39:32.186Z,3.70
2018-09-27T09:42:00.422Z,3.53
2018-09-27T09:44:28.666Z,3.57
2018-09-27T09:46:56.934Z,3.37
2018-09-27T09:49:25.300Z,3.67
2018-09-27T09:51:53.506Z,3.57
2018-09-27T09:54:21.795Z,3.73
2018-09-27T09:56:50.198Z,3.77
2018-09-27T09:59:18.437Z,3.50
2018-09-27T10:01:46.698Z,3.93
2018-09-27T10:04:14.931Z,3.73
2018-09-27T10:06:43.410Z,3.97
2018-09-27T10:09:12.077Z,3.87
2018-09-27T10:11:40.396Z,3.80
2018-09-27T10:14:08.774Z,3.77
2018-09-27T10:16:37.366Z,4.10
2018-09-27T10:19:05.598Z,4.23
2018-09-27T10:21:33.846Z,4.20
2018-09-27T10:24:02.094Z,4.03
2018-09-27T10:26:31.441Z,4.83
2018-09-27T10:28:59.651Z,4.40
2018-09-27T10:31:27.974Z,4.77
2018-09-27T10:33:56.241Z,4.50
2018-09-27T10:36:24.503Z,4.67
2018-09-27T10:38:52.743Z,3.97
2018-09-27T10:41:21.030Z,4.33
2018-09-27T10:43:49.469Z,4.47
2018-09-27T10:46:17.841Z,4.17
2018-09-27T10:48:46.087Z,4.07
2018-09-27T10:51:14.433Z,5.57
2018-09-27T10:53:42.767Z,4.17
2018-09-27T10:56:12.086Z,4.20
2018-09-27T10:58:40.371Z,4.10
2018-09-27T11:01:08.662Z,3.50
2018-09-27T11:03:36.885Z,3.67
2018-09-27T11:06:05.156Z,4.40
2018-09-27T11:08:33.442Z,4.50
2018-09-27T11:11:02.792Z,3.90
2018-09-27T11:13:30.989Z,3.50
2018-09-27T11:15:59.233Z,3.70
2018-09-27T11:18:27.450Z,4.10
2018-09-27T11:20:55.666Z,4.00
2018-09-27T11:23:23.928Z,3.83
2018-09-27T11:25:52.174Z,4.07
2018-09-27T11:28:20.466Z,4.20
2018-09-27T11:30:54.153Z,4.10
2018-09-27T11:33:22.498Z,3.70
2018-09-27T11:35:50.758Z,3.60
2018-09-27T11:38:19.026Z,3.73
2018-09-27T11:40:47.339Z,3.33
2018-09-27T11:43:15.641Z,3.50
2018-09-27T11:45:43.895Z,4.17
2018-09-27T11:48:12.113Z,3.60
2018-09-27T11:50:40.356Z,3.30
2018-09-27T11:53:08.579Z,3.80
2018-09-27T11:55:36.894Z,3.40
2018-09-27T11:58:05.150Z,3.30
2018-09-27T12:00:33.445Z,3.17
2018-09-27T12:03:01.651Z,3.63
2018-09-27T12:05:29.935Z,3.30
2018-09-27T12:07:58.178Z,3.30
2018-09-27T12:10:26.394Z,3.13
2018-09-27T12:12:54.770Z,2.70
2018-09-27T12:15:22.978Z,3.23
2018-09-27T12:17:52.306Z,3.90
2018-09-27T12:20:20.538Z,3.20
2018-09-27T12:22:48.939Z,3.50
2018-09-27T12:25:18.186Z,3.20
2018-09-27T12:27:46.410Z,2.83
2018-09-27T12:30:15.722Z,2.50
2018-09-27T12:32:43.951Z,3.17
2018-09-27T12:35:12.190Z,2.53
2018-09-27T12:37:40.429Z,3.10
2018-09-27T12:40:08.755Z,2.60
2018-09-27T12:42:37.220Z,2.70
2018-09-27T12:45:05.462Z,2.67
2018-09-27T12:47:33.618Z,3.27
2018-09-27T12:50:01.876Z,3.00
2018-09-27T12:52:30.199Z,2.47
2018-09-27T12:54:58.330Z,3.23
2018-09-27T12:57:26.595Z,3.07
2018-09-27T12:59:54.814Z,2.80
2018-09-27T13:02:23.079Z,2.77
2018-09-27T13:04:51.338Z,2.90
2018-09-27T13:07:19.593Z,3.30
2018-09-27T13:09:47.882Z,3.30
2018-09-27T13:12:16.113Z,3.30
2018-09-27T13:14:44.278Z,3.40
2018-09-27T13:17:12.564Z,3.00
2018-09-27T13:19:40.836Z,2.77
2018-09-27T13:22:08.983Z,3.17
2018-09-27T13:24:37.214Z,2.83
2018-09-27T13:27:05.750Z,3.17
2018-09-27T13:29:33.930Z,3.13
2018-09-27T13:32:02.187Z,3.13
2018-09-27T13:34:30.369Z,3.20
2018-09-27T13:36:58.654Z,3.00
2018-09-27T13:39:26.874Z,2.93
2018-09-27T13:41:55.146Z,3.00
2018-09-27T13:44:23.418Z,2.70
2018-09-27T13:46:51.761Z,3.00
2018-09-27T13:49:20.042Z,3.57
2018-09-27T13:51:48.554Z,2.47
2018-09-27T13:54:17.005Z,3.10
2018-09-27T13:56:45.492Z,3.20
2018-09-27T13:59:13.861Z,2.83
2018-09-27T14:01:43.203Z,3.00
2018-09-27T14:04:11.475Z,3.20
2018-09-27T14:06:39.707Z,2.60
2018-09-27T14:09:08.916Z,2.60
2018-09-27T14:11:38.374Z,2.70
2018-09-27T14:14:06.766Z,3.00
2018-09-27T14:16:35.409Z,2.83
2018-09-27T14:19:03.735Z,2.37
2018-09-27T14:21:32.075Z,2.80
2018-09-27T14:24:00.282Z,2.60
2018-09-27T14:26:28.510Z,2.20
2018-09-27T14:28:56.740Z,2.17
2018-09-27T14:31:24.998Z,2.50
2018-09-27T14:33:54.361Z,2.10
2018-09-27T14:36:22.586Z,2.60
2018-09-27T14:38:50.793Z,2.20
2018-09-27T14:41:19.014Z,2.00
2018-09-27T14:43:47.233Z,2.50
2018-09-27T14:46:15.466Z,2.73
2018-09-27T14:48:43.689Z,2.20
2018-09-27T14:51:11.938Z,2.60
2018-09-27T14:53:40.200Z,2.23
2018-09-27T14:56:08.531Z,2.53
2018-09-27T14:58:36.860Z,2.27
2018-09-27T15:01:05.098Z,2.23
2018-09-27T15:03:33.319Z,2.10
2018-09-27T15:06:02.594Z,2.33
2018-09-27T15:08:30.810Z,1.97
2018-09-27T15:10:59.063Z,2.30
2018-09-27T15:13:27.287Z,2.07
2018-09-27T15:15:55.526Z,2.33
2018-09-27T15:18:23.811Z,2.10
2018-09-27T15:20:52.106Z,2.33
2018-09-27T15:23:20.395Z,2.20
2018-09-27T15:25:48.622Z,1.77
2018-09-27T15:28:16.869Z,2.43
2018-09-27T15:30:45.140Z,2.70
2018-09-27T15:33:13.397Z,2.30
2018-09-27T15:35:41.671Z,2.47
2018-09-27T15:38:09.880Z,2.80
2018-09-27T15:40:38.142Z,2.27
2018-09-27T15:43:06.466Z,2.20
2018-09-27T15:45:34.681Z,2.20
2018-09-27T15:48:03.058Z,2.10
2018-09-27T15:50:31.265Z,2.63
2018-09-27T15:52:59.487Z,2.30
2018-09-27T15:55:27.726Z,2.07
2018-09-27T15:57:56.119Z,2.40
2018-09-27T16:00:24.422Z,2.87
2018-09-27T16:02:52.724Z,2.70
2018-09-27T16:05:21.025Z,2.17
2018-09-27T16:07:49.327Z,2.23
2018-09-27T16:10:17.561Z,2.47
2018-09-27T16:12:45.890Z,2.60
2018-09-27T16:15:14.106Z,3.50
2018-09-27T16:17:42.432Z,4.00
2018-09-27T16:20:10.646Z,5.83
2018-09-27T16:22:38.959Z,6.37
2018-09-27T16:25:07.470Z,6.07
2018-09-27T16:27:36.079Z,5.70
2018-09-27T16:30:04.329Z,5.60
2018-09-27T16:32:32.541Z,5.57
2018-09-27T16:35:00.778Z,4.43
2018-09-27T16:37:28.990Z,3.80
2018-09-27T16:39:57.260Z,2.90
2018-09-27T16:42:25.566Z,3.20
2018-09-27T16:44:53.788Z,2.80
2018-09-27T16:47:21.997Z,2.43
2018-09-27T16:49:50.332Z,2.33
2018-09-27T16:52:18.849Z,2.30
2018-09-27T16:54:47.255Z,2.83
2018-09-27T16:57:15.466Z,1.83
2018-09-27T16:59:43.731Z,2.23
2018-09-27T17:02:11.910Z,2.27
2018-09-27T17:04:40.132Z,2.43
2018-09-27T17:07:08.366Z,2.23
2018-09-27T17:09:36.591Z,2.90
2018-09-27T17:12:04.804Z,3.30
2018-09-27T17:14:33.062Z,2.97
2018-09-27T17:17:01.259Z,3.20
2018-09-27T17:19:29.479Z,2.47
2018-09-27T17:21:57.726Z,3.10
2018-09-27T17:24:26.057Z,3.10
2018-09-27T17:26:54.289Z,2.50
2018-09-27T17:29:22.528Z,2.30
2018-09-27T17:31:50.742Z,2.33
2018-09-27T17:34:18.952Z,3.17
2018-09-27T17:36:47.194Z,3.10
2018-09-27T17:39:15.414Z,3.33
2018-09-27T17:41:43.630Z,3.03
2018-09-27T17:44:11.873Z,2.70
2018-09-27T17:46:40.117Z,2.80
2018-09-27T17:49:08.354Z,2.70
2018-09-27T17:51:36.570Z,3.23
2018-09-27T17:54:04.813Z,2.93
2018-09-27T17:56:33.099Z,3.23
2018-09-27T17:59:01.382Z,3.07
2018-09-27T18:01:29.641Z,4.50
2018-09-27T18:03:57.809Z,7.60
2018-09-27T18:06:26.041Z,9.90
2018-09-27T18:08:54.358Z,3.47
2018-09-27T18:11:22.594Z,3.00
2018-09-27T18:13:50.831Z,3.50
2018-09-27T18:16:19.046Z,3.37
2018-09-27T18:18:47.276Z,3.20
2018-09-27T18:21:15.553Z,3.30
2018-09-27T18:23:43.897Z,3.17
2018-09-27T18:26:12.129Z,3.30
2018-09-27T18:28:40.417Z,3.20
2018-09-27T18:31:08.804Z,3.30
2018-09-27T18:33:36.965Z,3.30
2018-09-27T18:36:05.190Z,3.30
2018-09-27T18:38:33.422Z,3.63
2018-09-27T18:41:01.654Z,3.30
2018-09-27T18:43:29.908Z,3.07
2018-09-27T18:45:58.121Z,3.90
2018-09-27T18:48:26.431Z,3.37
2018-09-27T18:50:54.694Z,3.97
2018-09-27T18:53:23.030Z,3.80
2018-09-27T18:55:51.245Z,3.50
2018-09-27T18:58:19.538Z,3.90
2018-09-27T19:00:47.756Z,3.83
2018-09-27T19:03:15.993Z,3.53
2018-09-27T19:05:44.226Z,3.93
2018-09-27T19:08:12.501Z,4.33
2018-09-27T19:10:40.742Z,5.07
2018-09-27T19:13:09.002Z,4.40
2018-09-27T19:15:37.469Z,4.93
2018-09-27T19:18:05.730Z,4.83
2018-09-27T19:20:33.950Z,4.80
2018-09-27T19:23:02.189Z,5.10
2018-09-27T19:25:30.434Z,4.97
2018-09-27T19:27:58.673Z,5.30
2018-09-27T19:30:26.898Z,5.17
2018-09-27T19:32:55.982Z,5.60
2018-09-27T19:35:24.270Z,5.40
2018-09-27T19:37:52.489Z,5.10
2018-09-27T19:40:20.781Z,5.50
2018-09-27T19:42:49.015Z,5.23
2018-09-27T19:45:17.242Z,5.10
2018-09-27T19:47:45.457Z,5.23
2018-09-27T19:50:13.687Z,5.40
2018-09-27T19:52:41.913Z,5.30
2018-09-27T19:55:10.155Z,5.17
2018-09-27T19:57:38.374Z,5.37
2018-09-27T20:00:06.859Z,5.10
2018-09-27T20:02:35.157Z,5.83
2018-09-27T20:05:03.416Z,6.80
2018-09-27T20:07:31.634Z,7.90
2018-09-27T20:09:59.890Z,7.23
2018-09-27T20:12:28.707Z,6.13
2018-09-27T20:14:56.938Z,6.37
2018-09-27T20:17:25.158Z,6.60
2018-09-27T20:19:53.446Z,6.50
2018-09-27T20:22:21.705Z,5.80
2018-09-27T20:24:49.915Z,5.80
2018-09-27T20:27:18.137Z,4.93
2018-09-27T20:29:46.368Z,4.90
2018-09-27T20:32:14.594Z,5.00
2018-09-27T20:34:42.860Z,5.57
2018-09-27T20:37:11.917Z,4.97
2018-09-27T20:39:40.142Z,4.97
2018-09-27T20:42:08.375Z,4.37
2018-09-27T20:44:36.583Z,4.73
2018-09-27T20:47:04.812Z,4.73
2018-09-27T20:49:33.074Z,4.73
2018-09-27T20:52:01.350Z,4.50
2018-09-27T20:54:29.615Z,4.70
2018-09-27T20:56:57.907Z,4.53
2018-09-27T20:59:26.130Z,4.50
2018-09-27T21:01:54.548Z,4.90
2018-09-27T21:04:22.802Z,5.03
2018-09-27T21:06:51.067Z,4.40
2018-09-27T21:09:22.866Z,4.83
2018-09-27T21:11:51.159Z,4.50
2018-09-27T21:14:19.505Z,4.80
2018-09-27T21:16:47.883Z,4.87
2018-09-27T21:19:18.154Z,4.80
2018-09-27T21:21:46.394Z,5.30
2018-09-27T21:24:14.585Z,5.20
2018-09-27T21:26:42.786Z,4.50
2018-09-27T21:29:10.971Z,4.77
2018-09-27T21:31:39.326Z,4.67
2018-09-27T21:34:07.518Z,3.83
2018-09-27T21:36:35.739Z,4.20
2018-09-27T21:39:04.965Z,4.27
2018-09-27T21:41:33.171Z,3.63
2018-09-27T21:44:01.365Z,4.17
2018-09-27T21:46:29.560Z,4.40
2018-09-27T21:48:57.759Z,4.47
2018-09-27T21:51:25.958Z,5.00
2018-09-27T21:53:54.178Z,4.43
2018-09-27T21:56:22.378Z,4.57
2018-09-27T21:58:50.634Z,4.60
2018-09-27T22:01:19.167Z,4.40
2018-09-27T22:03:47.366Z,4.67
2018-09-27T22:06:15.578Z,4.60
2018-09-27T22:08:43.860Z,4.80
2018-09-27T22:11:12.094Z,4.60
2018-09-27T22:13:40.320Z,4.80
2018-09-27T22:16:08.514Z,4.90
2018-09-27T22:18:37.170Z,4.60
2018-09-27T22:21:05.454Z,4.67
2018-09-27T22:23:33.812Z,4.70
2018-09-27T22:26:02.024Z,4.40
2018-09-27T22:28:30.287Z,4.87
2018-09-27T22:30:58.516Z,4.60
2018-09-27T22:33:26.726Z,4.43
2018-09-27T22:35:54.969Z,4.80
2018-09-27T22:38:23.173Z,4.30
2018-09-27T22:40:51.539Z,4.87
2018-09-27T22:43:19.834Z,4.57
2018-09-27T22:45:48.022Z,4.83
2018-09-27T22:48:16.408Z,4.70
2018-09-27T22:50:44.625Z,4.83
2018-09-27T22:53:12.896Z,4.80
2018-09-27T22:55:41.108Z,4.83
2018-09-27T22:58:09.383Z,5.00
2018-09-27T23:00:37.663Z,4.90
2018-09-27T23:03:05.859Z,4.63
2018-09-27T23:05:34.073Z,5.10
2018-09-27T23:08:02.281Z,5.10
2018-09-27T23:10:30.470Z,5.13
2018-09-27T23:12:58.697Z,5.10
2018-09-27T23:15:26.906Z,4.90
2018-09-27T23:17:55.104Z,5.07
2018-09-27T23:20:23.318Z,4.80
2018-09-27T23:22:51.529Z,4.63
2018-09-27T23:25:19.710Z,4.90
2018-09-27T23:27:47.911Z,5.30
2018-09-27T23:30:16.117Z,5.03
2018-09-27T23:32:44.321Z,5.50
2018-09-27T23:35:12.551Z,5.50
2018-09-27T23:37:40.779Z,5.43
2018-09-27T23:40:08.994Z,5.47
2018-09-27T23:42:37.238Z,4.83
2018-09-27T23:45:05.578Z,4.90
2018-09-27T23:47:33.817Z,5.00
2018-09-27T23:50:02.044Z,4.67
2018-09-27T23:52:30.292Z,5.13
2018-09-27T23:54:58.523Z,4.90
2018-09-27T23:57:26.758Z,4.40
2018-09-27T23:59:55.014Z,4.57
